Time;durP1;ratioP1;P1;durP2;ratioP2;P2;SDS_P1;SDS_P2;PMS_P1;PMS_P2;Temp;Humidity;BMP_temperature;BMP_pressure;BME280_temperature;BME280_humidity;BME280_pressure;Samples;Min_cycle;Max_cycle;Signal;HPM_P1;HPM_P2
2021/12/07 00:01:48;;;;;;;0.10;0.10;;;;;;;;;;4879931;29;20044;-90
2021/12/07 00:04:14;;;;;;;0.10;0.10;;;;;;;;;;4863939;29;20048;-91
2021/12/07 00:06:40;;;;;;;0.20;0.20;;;;;;;;;;4864027;29;20131;-90
2021/12/07 00:09:07;;;;;;;0.10;0.10;;;;;;;;;;4879662;29;20044;-90
2021/12/07 00:11:33;;;;;;;0.65;0.30;;;;;;;;;;4864125;29;20033;-92
2021/12/07 00:13:59;;;;;;;0.10;0.10;;;;;;;;;;4864259;29;20128;-91
2021/12/07 00:16:26;;;;;;;0.05;0.05;;;;;;;;;;4864120;29;20063;-91
2021/12/07 00:18:52;;;;;;;0.10;0.10;;;;;;;;;;4879510;29;20056;-92
2021/12/07 00:21:18;;;;;;;0.10;0.10;;;;;;;;;;4863818;29;20148;-92
2021/12/07 00:23:45;;;;;;;0.10;0.10;;;;;;;;;;4879323;29;20049;-91
2021/12/07 00:26:12;;;;;;;0.10;0.10;;;;;;;;;;4879467;29;20045;-92
2021/12/07 00:28:38;;;;;;;1.00;0.43;;;;;;;;;;4863845;29;20045;-91
2021/12/07 00:31:12;;;;;;;1.45;0.20;;;;;;;;;;4863644;29;20481;-91
2021/12/07 00:33:48;;;;;;;0.10;0.10;;;;;;;;;;4878906;29;20123;-90
2021/12/07 00:36:14;;;;;;;0.10;0.10;;;;;;;;;;4863883;29;20049;-91
2021/12/07 00:38:40;;;;;;;0.10;0.10;;;;;;;;;;4863494;29;20420;-91
2021/12/07 00:41:06;;;;;;;0.00;0.00;;;;;;;;;;4864241;29;20136;-92
2021/12/07 00:43:33;;;;;;;0.00;0.00;;;;;;;;;;4864114;29;20053;-93
2021/12/07 00:46:00;;;;;;;0.00;0.00;;;;;;;;;;4863772;29;20044;-93
2021/12/07 00:48:26;;;;;;;0.10;0.10;;;;;;;;;;4879528;29;20049;-93
2021/12/07 00:50:54;;;;;;;0.10;0.10;;;;;;;;;;4863815;29;20041;-93
2021/12/07 00:53:21;;;;;;;0.10;0.10;;;;;;;;;;4863742;29;20049;-93
2021/12/07 00:55:50;;;;;;;0.10;0.10;;;;;;;;;;4863982;29;20041;-92
2021/12/07 00:58:18;;;;;;;0.10;0.10;;;;;;;;;;4863386;29;20059;-92
2021/12/07 01:00:45;;;;;;;0.45;0.30;;;;;;;;;;4863680;29;20045;-92
2021/12/07 01:03:11;;;;;;;0.10;0.10;;;;;;;;;;4878623;29;20049;-92
2021/12/07 01:05:39;;;;;;;0.10;0.10;;;;;;;;;;4863087;29;20037;-91
2021/12/07 01:27:03;;;;;;;0.10;0.10;;;;;;;;;;4878250;29;20041;-92
2021/12/07 01:29:29;;;;;;;0.10;0.10;;;;;;;;;;4862677;29;20045;-91
2021/12/07 01:32:09;;;;;;;0.05;0.05;;;;;;;;;;4862623;29;20103;-91
2021/12/07 01:45:55;;;;;;;0.10;0.10;;;;;;;;;;4877212;29;20049;-90
2021/12/07 01:51:25;;;;;;;0.00;0.00;;;;;;;;;;4877598;29;20045;-89
2021/12/07 01:59:35;;;;;;;0.05;0.05;;;;;;;;;;4877317;29;20474;-89
2021/12/07 02:02:12;;;;;;;0.10;0.10;;;;;;;;;;4861807;29;20120;-89
2021/12/07 02:04:38;;;;;;;0.00;0.00;;;;;;;;;;4877293;29;20512;-89
2021/12/07 02:07:04;;;;;;;0.10;0.10;;;;;;;;;;4861648;29;20115;-89
2021/12/07 02:09:32;;;;;;;0.10;0.10;;;;;;;;;;4861830;29;20083;-91
2021/12/07 02:12:00;;;;;;;0.10;0.10;;;;;;;;;;4861653;29;20076;-89
2021/12/07 02:14:26;;;;;;;0.10;0.10;;;;;;;;;;4861463;29;20056;-89
2021/12/07 02:16:53;;;;;;;0.10;0.10;;;;;;;;;;4861904;29;20045;-90
2021/12/07 02:19:19;;;;;;;0.10;0.10;;;;;;;;;;4861788;29;20121;-89
2021/12/07 02:21:45;;;;;;;0.10;0.10;;;;;;;;;;4861793;29;20144;-89
2021/12/07 02:24:11;;;;;;;0.10;0.10;;;;;;;;;;4877143;29;20084;-90
2021/12/07 02:26:37;;;;;;;0.10;0.10;;;;;;;;;;4877081;29;20540;-90
2021/12/07 02:29:04;;;;;;;0.10;0.10;;;;;;;;;;4861640;29;20044;-89
2021/12/07 02:31:30;;;;;;;0.10;0.10;;;;;;;;;;4877060;29;20044;-89
2021/12/07 02:33:56;;;;;;;0.10;0.10;;;;;;;;;;4861538;29;20041;-89
2021/12/07 02:36:22;;;;;;;0.10;0.10;;;;;;;;;;4861391;29;20095;-89
2021/12/07 02:38:48;;;;;;;3.03;0.47;;;;;;;;;;4861479;29;20345;-89
2021/12/07 02:41:14;;;;;;;0.03;0.03;;;;;;;;;;4861810;29;20552;-89
2021/12/07 02:43:40;;;;;;;0.00;0.00;;;;;;;;;;4877017;29;20157;-88
2021/12/07 02:46:06;;;;;;;0.10;0.10;;;;;;;;;;4861645;29;20132;-88
2021/12/07 02:48:32;;;;;;;0.10;0.10;;;;;;;;;;4876763;29;20150;-89
2021/12/07 02:50:58;;;;;;;0.00;0.00;;;;;;;;;;4861785;29;20037;-89
2021/12/07 02:53:26;;;;;;;0.00;0.00;;;;;;;;;;4877283;29;20097;-92
2021/12/07 02:55:52;;;;;;;0.10;0.10;;;;;;;;;;4861775;29;20093;-91
2021/12/07 02:58:19;;;;;;;0.10;0.10;;;;;;;;;;4879074;29;20135;-90
2021/12/07 03:00:52;;;;;;;0.10;0.10;;;;;;;;;;4865100;29;20502;-90
2021/12/07 03:03:18;;;;;;;0.10;0.10;;;;;;;;;;4865125;29;20049;-89
2021/12/07 03:06:03;;;;;;;0.10;0.10;;;;;;;;;;4865040;29;20045;-90
2021/12/07 03:25:54;;;;;;;0.00;0.00;;;;;;;;;;4880468;29;20045;-90
2021/12/07 03:27:54;;;;;;;0.35;0.05;;;;;;;;;;4880150;29;20501;-90
2021/12/07 03:30:20;;;;;;;0.20;0.20;;;;;;;;;;4880330;29;20119;-90
2021/12/07 03:32:46;;;;;;;0.00;0.00;;;;;;;;;;4880126;29;20049;-91
2021/12/07 03:35:12;;;;;;;0.10;0.10;;;;;;;;;;4864631;29;20087;-90
2021/12/07 03:37:38;;;;;;;0.10;0.10;;;;;;;;;;4879737;29;20210;-90
2021/12/07 03:40:04;;;;;;;0.00;0.00;;;;;;;;;;4864417;29;20139;-90
2021/12/07 03:42:30;;;;;;;0.22;0.13;;;;;;;;;;4864696;29;20476;-90
2021/12/07 03:44:56;;;;;;;0.08;0.08;;;;;;;;;;4879980;29;20097;-91
2021/12/07 03:47:22;;;;;;;0.10;0.10;;;;;;;;;;4864620;29;20037;-91
2021/12/07 03:49:48;;;;;;;0.10;0.10;;;;;;;;;;4864796;29;20093;-90
2021/12/07 03:52:14;;;;;;;0.22;0.22;;;;;;;;;;4864484;29;20405;-89
2021/12/07 03:54:40;;;;;;;0.10;0.10;;;;;;;;;;4879755;29;20128;-89
2021/12/07 03:57:06;;;;;;;0.10;0.10;;;;;;;;;;4879569;29;20461;-90
2021/12/07 03:59:32;;;;;;;0.00;0.00;;;;;;;;;;4864222;29;20052;-90
2021/12/07 04:01:58;;;;;;;0.10;0.10;;;;;;;;;;4879598;29;20045;-90
2021/12/07 04:04:24;;;;;;;0.10;0.10;;;;;;;;;;4879301;29;20049;-89
2021/12/07 04:06:50;;;;;;;0.00;0.00;;;;;;;;;;4879340;29;20085;-89
2021/12/07 04:09:16;;;;;;;0.10;0.10;;;;;;;;;;4863072;29;20434;-89
2021/12/07 04:11:42;;;;;;;0.00;0.00;;;;;;;;;;4879350;29;20408;-89
2021/12/07 04:14:08;;;;;;;0.10;0.10;;;;;;;;;;4879324;29;20080;-89
2021/12/07 04:16:34;;;;;;;0.10;0.10;;;;;;;;;;4863827;29;20081;-90
2021/12/07 04:19:00;;;;;;;0.10;0.10;;;;;;;;;;4864264;29;20083;-90
2021/12/07 04:21:26;;;;;;;0.10;0.10;;;;;;;;;;4864019;29;20041;-90
2021/12/07 04:23:52;;;;;;;0.00;0.00;;;;;;;;;;4863762;29;20164;-90
2021/12/07 04:26:18;;;;;;;0.10;0.10;;;;;;;;;;4863728;29;20048;-90
2021/12/07 04:28:44;;;;;;;0.00;0.00;;;;;;;;;;4863539;29;20544;-90
2021/12/07 04:31:10;;;;;;;0.10;0.10;;;;;;;;;;4863636;29;20112;-90
2021/12/07 04:33:36;;;;;;;0.10;0.10;;;;;;;;;;4863629;29;20136;-91
2021/12/07 04:36:03;;;;;;;0.10;0.10;;;;;;;;;;4878877;29;20115;-91
2021/12/07 04:38:29;;;;;;;0.10;0.10;;;;;;;;;;4863516;29;20061;-91
2021/12/07 04:40:55;;;;;;;0.00;0.00;;;;;;;;;;4863693;29;20430;-90
2021/12/07 04:43:21;;;;;;;0.10;0.10;;;;;;;;;;4863492;29;20503;-91
2021/12/07 04:45:57;;;;;;;0.08;0.08;;;;;;;;;;4863726;29;20448;-91
2021/12/07 04:59:09;;;;;;;0.10;0.10;;;;;;;;;;4878703;29;20049;-91
2021/12/07 05:01:35;;;;;;;0.08;0.08;;;;;;;;;;4863305;29;20343;-90
2021/12/07 05:04:08;;;;;;;0.00;0.00;;;;;;;;;;4863051;29;20041;-90
2021/12/07 05:06:39;;;;;;;;;;;;;;;;;;4863508;29;20037;-91
2021/12/07 05:09:23;;;;;;;0.10;0.10;;;;;;;;;;4878570;29;19920;-90
2021/12/07 05:12:04;;;;;;;0.10;0.10;;;;;;;;;;4863154;29;20047;-90
2021/12/07 05:14:33;;;;;;;0.00;0.00;;;;;;;;;;4863286;29;20048;-90
2021/12/07 05:26:06;;;;;;;0.00;0.00;;;;;;;;;;4863772;29;20112;-91
2021/12/07 05:39:33;;;;;;;0.10;0.10;;;;;;;;;;5114655;28;20126;-89
2021/12/07 05:42:01;;;;;;;0.10;0.10;;;;;;;;;;5111873;28;20066;-89
2021/12/07 05:44:27;;;;;;;0.10;0.10;;;;;;;;;;5112103;28;20039;-89
2021/12/07 05:46:53;;;;;;;0.10;0.10;;;;;;;;;;5111652;28;20062;-89
2021/12/07 05:49:18;;;;;;;0.10;0.10;;;;;;;;;;5111831;28;20039;-89
2021/12/07 05:51:44;;;;;;;0.10;0.10;;;;;;;;;;5111786;28;20210;-89
2021/12/07 05:54:12;;;;;;;0.00;0.00;;;;;;;;;;5094802;28;20038;-90
2021/12/07 05:56:38;;;;;;;0.10;0.10;;;;;;;;;;5111792;28;20093;-90
2021/12/07 05:59:04;;;;;;;0.10;0.10;;;;;;;;;;5094707;28;20400;-87
2021/12/07 06:01:30;;;;;;;0.10;0.10;;;;;;;;;;5111523;27;20035;-87
2021/12/07 06:03:55;;;;;;;0.10;0.10;;;;;;;;;;5111468;28;20423;-89
2021/12/07 06:06:21;;;;;;;0.10;0.10;;;;;;;;;;5095126;28;20077;-91
2021/12/07 06:08:47;;;;;;;0.10;0.10;;;;;;;;;;5095311;28;20067;-91
2021/12/07 06:11:13;;;;;;;0.00;0.00;;;;;;;;;;5094861;28;20040;-90
2021/12/07 06:13:39;;;;;;;0.10;0.10;;;;;;;;;;5094643;28;20491;-91
2021/12/07 06:16:07;;;;;;;0.10;0.10;;;;;;;;;;5094780;27;20043;-91
2021/12/07 06:18:37;;;;;;;0.10;0.10;;;;;;;;;;5094945;28;20037;-91
2021/12/07 06:21:04;;;;;;;0.10;0.10;;;;;;;;;;5094870;28;20183;-91
2021/12/07 06:23:29;;;;;;;0.10;0.10;;;;;;;;;;5094695;28;20516;-91
2021/12/07 06:25:57;;;;;;;0.10;0.10;;;;;;;;;;5094736;28;20039;-91
2021/12/07 06:28:23;;;;;;;0.00;0.00;;;;;;;;;;5094534;28;20091;-92
2021/12/07 06:30:49;;;;;;;0.10;0.10;;;;;;;;;;5094003;27;20135;-88
2021/12/07 06:33:15;;;;;;;0.10;0.10;;;;;;;;;;5093979;28;20039;-89
2021/12/07 06:35:41;;;;;;;0.10;0.10;;;;;;;;;;5093895;28;20035;-89
2021/12/07 06:38:07;;;;;;;0.10;0.10;;;;;;;;;;5090897;28;20047;-90
2021/12/07 06:40:33;;;;;;;0.10;0.10;;;;;;;;;;5080301;28;20486;-92
2021/12/07 06:43:00;;;;;;;0.00;0.00;;;;;;;;;;5080582;28;20075;-88
2021/12/07 06:45:26;;;;;;;0.10;0.10;;;;;;;;;;5097086;28;20049;-88
2021/12/07 06:47:52;;;;;;;0.00;0.00;;;;;;;;;;5080390;28;20107;-90
2021/12/07 06:50:18;;;;;;;0.10;0.10;;;;;;;;;;5080263;28;20071;-89
2021/12/07 06:52:44;;;;;;;0.10;0.10;;;;;;;;;;5080074;28;20379;-90
2021/12/07 06:55:10;;;;;;;0.30;0.30;;;;;;;;;;5079951;28;20106;-85
2021/12/07 06:57:36;;;;;;;0.05;0.05;;;;;;;;;;5096685;28;20044;-85
2021/12/07 07:00:04;;;;;;;0.10;0.10;;;;;;;;;;5096758;28;20083;-87
2021/12/07 07:02:29;;;;;;;0.08;0.08;;;;;;;;;;5080299;28;20122;-90
2021/12/07 07:04:55;;;;;;;0.10;0.10;;;;;;;;;;5097191;28;20070;-88
2021/12/07 07:07:22;;;;;;;0.10;0.10;;;;;;;;;;5096620;28;20050;-90
2021/12/07 07:09:49;;;;;;;0.10;0.10;;;;;;;;;;5097092;28;20057;-92
2021/12/07 07:12:15;;;;;;;0.10;0.10;;;;;;;;;;5080316;28;20028;-89
2021/12/07 07:14:41;;;;;;;0.10;0.10;;;;;;;;;;5079984;28;20398;-91
2021/12/07 07:17:08;;;;;;;0.10;0.10;;;;;;;;;;5079419;28;20036;-91
2021/12/07 07:19:34;;;;;;;0.10;0.10;;;;;;;;;;5079922;28;20046;-87
2021/12/07 07:22:02;;;;;;;0.10;0.10;;;;;;;;;;5096255;28;20043;-87
2021/12/07 07:24:29;;;;;;;0.10;0.10;;;;;;;;;;5079625;28;20040;-86
2021/12/07 07:26:55;;;;;;;0.10;0.10;;;;;;;;;;5078735;28;20051;-86
2021/12/07 07:29:21;;;;;;;0.00;0.00;;;;;;;;;;5095862;28;20394;-88
2021/12/07 07:31:47;;;;;;;0.00;0.00;;;;;;;;;;5096001;28;20039;-89
2021/12/07 07:34:13;;;;;;;0.10;0.10;;;;;;;;;;5096051;28;20031;-88
2021/12/07 07:36:41;;;;;;;0.10;0.10;;;;;;;;;;5095919;28;20043;-89
2021/12/07 07:39:07;;;;;;;0.00;0.00;;;;;;;;;;5079106;28;20047;-90
2021/12/07 07:41:33;;;;;;;0.10;0.10;;;;;;;;;;5078979;28;20058;-91
2021/12/07 07:43:59;;;;;;;0.10;0.10;;;;;;;;;;5079323;28;20042;-90
2021/12/07 07:46:26;;;;;;;0.00;0.00;;;;;;;;;;5079052;28;20505;-87
2021/12/07 07:48:52;;;;;;;0.10;0.10;;;;;;;;;;5096326;28;20383;-88
2021/12/07 07:51:18;;;;;;;0.10;0.10;;;;;;;;;;5077675;28;20046;-88
2021/12/07 07:53:44;;;;;;;0.10;0.10;;;;;;;;;;5112534;28;20046;-89
2021/12/07 07:56:10;;;;;;;0.10;0.10;;;;;;;;;;5095269;28;20071;-88
2021/12/07 07:58:36;;;;;;;0.10;0.10;;;;;;;;;;5093857;28;20038;-88
2021/12/07 08:01:02;;;;;;;0.10;0.10;;;;;;;;;;5078671;28;20043;-87
2021/12/07 08:03:28;;;;;;;0.10;0.10;;;;;;;;;;5094922;28;20043;-87
2021/12/07 08:05:54;;;;;;;0.10;0.10;;;;;;;;;;5095207;28;20035;-87
2021/12/07 08:08:20;;;;;;;0.10;0.10;;;;;;;;;;5078374;28;20043;-85
2021/12/07 08:10:46;;;;;;;0.10;0.10;;;;;;;;;;5112132;28;20104;-88
2021/12/07 08:13:12;;;;;;;0.20;0.20;;;;;;;;;;5077647;28;20075;-87
2021/12/07 08:15:41;;;;;;;0.10;0.10;;;;;;;;;;5095002;28;20074;-88
2021/12/07 08:18:07;;;;;;;0.00;0.00;;;;;;;;;;5078484;28;20449;-88
2021/12/07 08:20:33;;;;;;;0.10;0.10;;;;;;;;;;5078095;28;20051;-88
2021/12/07 08:23:04;;;;;;;0.10;0.10;;;;;;;;;;5094858;28;20494;-88
2021/12/07 08:25:30;;;;;;;0.10;0.10;;;;;;;;;;5078759;28;20047;-88
2021/12/07 08:27:56;;;;;;;0.10;0.10;;;;;;;;;;5094447;28;20052;-89
2021/12/07 08:30:22;;;;;;;0.10;0.10;;;;;;;;;;5088025;28;20044;-85
2021/12/07 08:32:48;;;;;;;0.10;0.10;;;;;;;;;;5074306;28;20058;-89
2021/12/07 08:35:15;;;;;;;0.05;0.05;;;;;;;;;;5074771;28;20094;-88
2021/12/07 08:37:41;;;;;;;0.10;0.10;;;;;;;;;;5075367;28;20130;-88
2021/12/07 08:40:09;;;;;;;0.10;0.10;;;;;;;;;;5091695;28;20126;-88
2021/12/07 08:42:35;;;;;;;0.10;0.10;;;;;;;;;;5058715;28;20118;-89
2021/12/07 08:45:01;;;;;;;0.00;0.00;;;;;;;;;;5093215;28;20085;-87
2021/12/07 08:47:27;;;;;;;0.00;0.00;;;;;;;;;;5081931;28;20040;-88
2021/12/07 08:49:54;;;;;;;0.00;0.00;;;;;;;;;;5057718;28;20036;-86
2021/12/07 08:52:23;;;;;;;0.10;0.10;;;;;;;;;;5088187;28;20431;-92
2021/12/07 08:59:59;;;;;;;0.10;0.10;;;;;;;;;;5091005;28;20044;-87
2021/12/07 09:02:26;;;;;;;0.10;0.10;;;;;;;;;;5057953;28;20093;-92
2021/12/07 09:04:55;;;;;;;0.10;0.10;;;;;;;;;;5057842;28;20501;-90
2021/12/07 09:07:21;;;;;;;0.10;0.10;;;;;;;;;;5058085;28;20075;-90
2021/12/07 09:09:47;;;;;;;0.10;0.10;;;;;;;;;;5057707;28;20039;-88
2021/12/07 09:12:14;;;;;;;0.10;0.10;;;;;;;;;;5057587;28;20040;-87
2021/12/07 09:14:42;;;;;;;0.10;0.10;;;;;;;;;;5058068;28;20525;-93
2021/12/07 09:17:08;;;;;;;0.10;0.10;;;;;;;;;;5057669;28;20482;-88
2021/12/07 09:19:34;;;;;;;0.10;0.10;;;;;;;;;;5074075;28;20051;-90
2021/12/07 09:22:00;;;;;;;0.10;0.10;;;;;;;;;;5057832;28;20462;-90
2021/12/07 09:24:26;;;;;;;0.00;0.00;;;;;;;;;;5084591;28;20093;-90
2021/12/07 09:26:52;;;;;;;0.00;0.00;;;;;;;;;;5084273;28;20048;-90
2021/12/07 09:29:18;;;;;;;0.10;0.10;;;;;;;;;;5077519;28;20046;-91
2021/12/07 09:31:44;;;;;;;0.10;0.10;;;;;;;;;;5077647;28;20444;-91
2021/12/07 09:34:11;;;;;;;0.10;0.10;;;;;;;;;;5094479;28;20043;-92
2021/12/07 09:36:37;;;;;;;0.10;0.10;;;;;;;;;;5078087;28;20155;-91
2021/12/07 09:39:04;;;;;;;0.10;0.10;;;;;;;;;;5077949;28;20075;-91
2021/12/07 09:41:30;;;;;;;0.10;0.10;;;;;;;;;;5077897;28;20101;-91
2021/12/07 09:43:56;;;;;;;0.00;0.00;;;;;;;;;;5077677;28;20423;-91
2021/12/07 09:46:22;;;;;;;0.10;0.10;;;;;;;;;;5077597;28;20039;-90
2021/12/07 09:48:48;;;;;;;0.10;0.10;;;;;;;;;;5077779;28;20525;-90
2021/12/07 09:51:17;;;;;;;0.03;0.03;;;;;;;;;;5077584;28;20078;-89
2021/12/07 09:53:44;;;;;;;0.10;0.10;;;;;;;;;;5077259;28;20395;-90
2021/12/07 09:56:10;;;;;;;0.10;0.10;;;;;;;;;;5077818;28;20081;-93
2021/12/07 09:58:36;;;;;;;0.10;0.10;;;;;;;;;;5077593;28;20097;-91
2021/12/07 10:01:03;;;;;;;0.00;0.00;;;;;;;;;;5077416;28;20039;-91
2021/12/07 10:03:29;;;;;;;0.00;0.00;;;;;;;;;;5111137;28;20047;-91
2021/12/07 10:05:55;;;;;;;0.00;0.00;;;;;;;;;;5077605;28;20047;-91
2021/12/07 10:08:21;;;;;;;0.00;0.00;;;;;;;;;;5094076;28;20032;-90
2021/12/07 10:10:53;;;;;;;0.10;0.10;;;;;;;;;;5094618;28;20056;-90
2021/12/07 10:13:21;;;;;;;0.08;0.08;;;;;;;;;;5078202;28;20466;-91
2021/12/07 10:15:47;;;;;;;0.00;0.00;;;;;;;;;;5081558;28;20031;-91
2021/12/07 10:18:17;;;;;;;0.05;0.05;;;;;;;;;;5098689;28;20126;-91
2021/12/07 10:20:44;;;;;;;0.05;0.05;;;;;;;;;;5098103;28;20057;-90
2021/12/07 10:23:16;;;;;;;0.05;0.05;;;;;;;;;;5081102;28;20036;-89
2021/12/07 10:25:43;;;;;;;0.00;0.00;;;;;;;;;;5115110;28;20545;-90
2021/12/07 10:28:29;;;;;;;0.00;0.00;;;;;;;;;;5097696;28;20094;-90
2021/12/07 10:30:55;;;;;;;0.00;0.00;;;;;;;;;;5116267;28;20055;-91
2021/12/07 10:33:57;;;;;;;0.05;0.05;;;;;;;;;;5108135;28;20019;-91
2021/12/07 10:36:23;;;;;;;0.00;0.00;;;;;;;;;;5121839;28;20038;-89
2021/12/07 10:38:50;;;;;;;0.10;0.10;;;;;;;;;;5099728;28;20065;-86
2021/12/07 10:41:21;;;;;;;0.00;0.00;;;;;;;;;;5097533;28;20093;-94
2021/12/07 10:43:47;;;;;;;0.00;0.00;;;;;;;;;;5081571;28;20039;-89
2021/12/07 10:46:25;;;;;;;0.00;0.00;;;;;;;;;;5114438;28;20504;-91
2021/12/07 10:48:51;;;;;;;0.00;0.00;;;;;;;;;;5097194;28;20043;-91
2021/12/07 10:51:17;;;;;;;0.05;0.05;;;;;;;;;;5080019;28;20044;-90
2021/12/07 10:53:53;;;;;;;0.00;0.00;;;;;;;;;;5097204;28;20470;-91
2021/12/07 10:56:29;;;;;;;0.00;0.00;;;;;;;;;;5096724;28;20043;-89
2021/12/07 10:58:59;;;;;;;0.00;0.00;;;;;;;;;;5080317;28;20035;-88
2021/12/07 11:01:41;;;;;;;0.10;0.10;;;;;;;;;;5096636;28;20042;-89
2021/12/07 11:04:26;;;;;;;0.00;0.00;;;;;;;;;;5080346;28;20047;-88
2021/12/07 11:07:04;;;;;;;0.10;0.10;;;;;;;;;;5113388;28;20053;-88
2021/12/07 11:09:30;;;;;;;0.03;0.03;;;;;;;;;;5096644;28;20043;-89
2021/12/07 11:12:07;;;;;;;0.00;0.00;;;;;;;;;;5096758;28;20398;-91
2021/12/07 11:14:48;;;;;;;0.10;0.10;;;;;;;;;;5096854;28;20080;-92
2021/12/07 11:17:15;;;;;;;0.10;0.10;;;;;;;;;;5081339;28;20040;-92
2021/12/07 11:19:41;;;;;;;0.00;0.00;;;;;;;;;;5096723;28;20039;-90
2021/12/07 11:22:06;;;;;;;0.10;0.10;;;;;;;;;;5079926;28;20042;-87
2021/12/07 11:24:36;;;;;;;0.10;0.10;;;;;;;;;;5079544;28;20044;-88
2021/12/07 11:29:57;;;;;;;0.00;0.00;;;;;;;;;;5098839;28;20044;-89
2021/12/07 11:32:23;;;;;;;0.10;0.10;;;;;;;;;;5096017;28;20040;-89
2021/12/07 11:34:49;;;;;;;0.08;0.08;;;;;;;;;;5095892;28;20035;-89
2021/12/07 11:37:15;;;;;;;0.10;0.10;;;;;;;;;;5079252;28;20043;-89
2021/12/07 11:39:47;;;;;;;0.10;0.10;;;;;;;;;;5079264;28;20382;-89
2021/12/07 11:42:17;;;;;;;0.00;0.00;;;;;;;;;;5096001;28;20091;-89
2021/12/07 11:44:49;;;;;;;0.10;0.10;;;;;;;;;;5077110;28;20032;-89
2021/12/07 11:47:15;;;;;;;0.10;0.10;;;;;;;;;;5080670;28;20047;-88
2021/12/07 11:49:41;;;;;;;0.70;0.10;;;;;;;;;;5075706;28;20036;-89
2021/12/07 11:52:07;;;;;;;0.10;0.10;;;;;;;;;;5075356;28;20036;-89
2021/12/07 11:54:35;;;;;;;0.10;0.10;;;;;;;;;;5075472;28;20044;-89
2021/12/07 11:57:01;;;;;;;0.10;0.10;;;;;;;;;;5092091;28;20047;-89
2021/12/07 11:59:27;;;;;;;0.10;0.10;;;;;;;;;;5075232;28;20270;-89
2021/12/07 12:01:53;;;;;;;0.10;0.10;;;;;;;;;;5075138;28;20105;-89
2021/12/07 12:04:20;;;;;;;0.10;0.10;;;;;;;;;;5092120;28;20044;-89
2021/12/07 12:06:46;;;;;;;0.10;0.10;;;;;;;;;;5075234;28;20052;-89
2021/12/07 12:09:12;;;;;;;0.00;0.00;;;;;;;;;;5075363;28;20032;-89
2021/12/07 12:11:54;;;;;;;0.10;0.10;;;;;;;;;;5075373;28;20039;-89
2021/12/07 12:14:39;;;;;;;0.00;0.00;;;;;;;;;;5074904;28;20032;-89
2021/12/07 12:17:17;;;;;;;0.10;0.10;;;;;;;;;;5074880;28;20071;-88
2021/12/07 12:19:47;;;;;;;0.10;0.10;;;;;;;;;;5091913;28;20123;-88
2021/12/07 12:22:16;;;;;;;0.00;0.00;;;;;;;;;;5074976;28;20040;-88
2021/12/07 12:24:44;;;;;;;0.10;0.10;;;;;;;;;;5091753;28;20382;-87
2021/12/07 12:27:21;;;;;;;0.10;0.10;;;;;;;;;;5074874;28;20052;-88
2021/12/07 12:29:49;;;;;;;0.03;0.03;;;;;;;;;;5074703;28;20139;-89
2021/12/07 12:32:17;;;;;;;0.00;0.00;;;;;;;;;;5074665;28;20340;-89
2021/12/07 12:34:49;;;;;;;0.10;0.10;;;;;;;;;;5074490;28;20059;-89
2021/12/07 12:37:16;;;;;;;0.00;0.00;;;;;;;;;;5074080;28;20046;-89
2021/12/07 12:39:51;;;;;;;0.10;0.10;;;;;;;;;;5074638;28;20052;-87
2021/12/07 12:42:19;;;;;;;0.10;0.10;;;;;;;;;;5074471;28;20108;-87
2021/12/07 12:44:45;;;;;;;0.10;0.10;;;;;;;;;;5074458;28;20039;-87
2021/12/07 12:47:11;;;;;;;0.10;0.10;;;;;;;;;;5074259;28;20036;-88
2021/12/07 12:49:40;;;;;;;0.00;0.00;;;;;;;;;;5074547;28;20490;-89
2021/12/07 12:52:06;;;;;;;0.03;0.03;;;;;;;;;;5074463;28;20047;-88
2021/12/07 12:54:59;;;;;;;0.10;0.10;;;;;;;;;;5074362;28;20123;-89
2021/12/07 12:57:25;;;;;;;0.10;0.10;;;;;;;;;;5069724;28;20525;-87
2021/12/07 12:59:51;;;;;;;0.10;0.10;;;;;;;;;;5074319;28;20094;-89
2021/12/07 13:02:18;;;;;;;0.05;0.05;;;;;;;;;;5091061;28;20406;-89
2021/12/07 13:04:46;;;;;;;0.10;0.10;;;;;;;;;;5074193;28;20040;-88
2021/12/07 13:07:24;;;;;;;0.10;0.10;;;;;;;;;;5074347;28;20048;-88
2021/12/07 13:09:55;;;;;;;0.10;0.10;;;;;;;;;;5073990;28;20040;-89
2021/12/07 13:12:24;;;;;;;0.10;0.10;;;;;;;;;;5074038;28;20043;-89
2021/12/07 13:14:50;;;;;;;0.82;0.82;;;;;;;;;;5090542;28;20491;-89
2021/12/07 13:17:20;;;;;;;0.10;0.10;;;;;;;;;;5090870;28;20036;-88
2021/12/07 13:20:05;;;;;;;0.10;0.10;;;;;;;;;;5074134;28;20146;-89
2021/12/07 13:22:54;;;;;;;0.10;0.10;;;;;;;;;;5090548;28;20044;-89
2021/12/07 13:25:25;;;;;;;0.13;0.13;;;;;;;;;;5061872;28;20101;-89
2021/12/07 13:28:10;;;;;;;0.10;0.10;;;;;;;;;;5073629;28;20515;-89
2021/12/07 13:30:49;;;;;;;0.10;0.10;;;;;;;;;;5073857;28;20044;-89
2021/12/07 13:33:34;;;;;;;0.10;0.10;;;;;;;;;;5091512;28;20072;-91
2021/12/07 13:36:00;;;;;;;0.10;0.10;;;;;;;;;;5074198;28;20036;-91
2021/12/07 13:38:27;;;;;;;0.10;0.10;;;;;;;;;;5074275;28;20127;-92
2021/12/07 13:41:12;;;;;;;0.10;0.10;;;;;;;;;;5074204;28;20446;-92
2021/12/07 13:43:38;;;;;;;0.10;0.10;;;;;;;;;;5091061;28;20115;-88
2021/12/07 13:46:08;;;;;;;0.10;0.10;;;;;;;;;;5073606;28;20497;-89
2021/12/07 13:48:34;;;;;;;0.10;0.10;;;;;;;;;;5074265;28;20040;-90
2021/12/07 13:51:00;;;;;;;0.10;0.10;;;;;;;;;;5077696;28;20081;-90
2021/12/07 13:53:28;;;;;;;0.10;0.10;;;;;;;;;;5077492;28;20040;-89
2021/12/07 13:55:54;;;;;;;0.10;0.10;;;;;;;;;;5077282;28;20032;-88
2021/12/07 13:58:20;;;;;;;0.00;0.00;;;;;;;;;;5077345;28;20193;-90
2021/12/07 14:00:45;;;;;;;0.10;0.10;;;;;;;;;;5077382;28;20048;-89
2021/12/07 14:03:14;;;;;;;0.10;0.10;;;;;;;;;;5077576;28;20120;-89
2021/12/07 14:05:42;;;;;;;0.10;0.10;;;;;;;;;;5077361;28;20440;-90
2021/12/07 14:08:08;;;;;;;0.10;0.10;;;;;;;;;;5077308;28;20044;-90
2021/12/07 14:10:42;;;;;;;0.10;0.10;;;;;;;;;;5077382;28;20055;-88
2021/12/07 14:13:08;;;;;;;0.10;0.10;;;;;;;;;;5077238;28;20051;-89
2021/12/07 14:15:35;;;;;;;0.10;0.10;;;;;;;;;;5077212;28;20044;-89
2021/12/07 14:18:04;;;;;;;0.10;0.10;;;;;;;;;;5077053;28;20126;-89
2021/12/07 14:20:33;;;;;;;0.10;0.10;;;;;;;;;;5077288;28;20072;-89
2021/12/07 14:22:59;;;;;;;0.10;0.10;;;;;;;;;;5093888;28;20036;-89
2021/12/07 14:25:25;;;;;;;0.10;0.10;;;;;;;;;;5077094;28;20385;-90
2021/12/07 14:27:52;;;;;;;0.10;0.10;;;;;;;;;;5076804;28;20052;-90
2021/12/07 14:30:18;;;;;;;0.10;0.10;;;;;;;;;;5077467;28;20422;-90
2021/12/07 14:32:44;;;;;;;0.00;0.00;;;;;;;;;;5076884;28;20055;-89
2021/12/07 14:35:10;;;;;;;0.10;0.10;;;;;;;;;;5076539;28;20043;-89
2021/12/07 14:37:37;;;;;;;0.10;0.10;;;;;;;;;;5076637;28;20043;-87
2021/12/07 14:40:05;;;;;;;0.00;0.00;;;;;;;;;;5093917;28;20554;-88
2021/12/07 14:42:31;;;;;;;0.10;0.10;;;;;;;;;;5093486;28;20109;-88
2021/12/07 14:44:58;;;;;;;0.10;0.10;;;;;;;;;;5076691;28;20081;-89
2021/12/07 14:47:24;;;;;;;0.08;0.08;;;;;;;;;;5076425;28;20059;-87
2021/12/07 14:49:55;;;;;;;0.10;0.10;;;;;;;;;;5076989;28;20039;-87
2021/12/07 14:52:21;;;;;;;0.10;0.10;;;;;;;;;;5076904;28;20124;-87
2021/12/07 14:54:48;;;;;;;0.10;0.10;;;;;;;;;;5077216;28;20435;-88
2021/12/07 14:57:15;;;;;;;0.10;0.10;;;;;;;;;;5077656;28;20101;-89
2021/12/07 14:59:41;;;;;;;0.10;0.10;;;;;;;;;;5079694;28;20039;-89
2021/12/07 15:02:09;;;;;;;0.00;0.00;;;;;;;;;;5100550;28;20356;-88
2021/12/07 15:04:35;;;;;;;1.02;0.32;;;;;;;;;;5089716;28;20044;-88
2021/12/07 15:07:01;;;;;;;0.10;0.10;;;;;;;;;;5076823;28;20054;-90
2021/12/07 15:09:27;;;;;;;0.10;0.10;;;;;;;;;;5076484;28;20442;-88
2021/12/07 15:11:54;;;;;;;0.10;0.10;;;;;;;;;;5076424;28;20071;-88
2021/12/07 15:14:21;;;;;;;0.10;0.10;;;;;;;;;;5076563;28;20119;-87
2021/12/07 15:16:48;;;;;;;2.08;0.28;;;;;;;;;;5075942;28;20036;-87
2021/12/07 15:19:13;;;;;;;0.10;0.10;;;;;;;;;;5075898;28;20044;-87
2021/12/07 15:21:40;;;;;;;0.10;0.10;;;;;;;;;;5092798;28;20089;-87
2021/12/07 15:24:11;;;;;;;0.20;0.20;;;;;;;;;;5075693;28;20079;-87
2021/12/07 15:26:37;;;;;;;0.28;0.28;;;;;;;;;;5075689;28;20436;-87
2021/12/07 15:29:09;;;;;;;0.10;0.10;;;;;;;;;;5075851;28;20548;-87
2021/12/07 15:31:36;;;;;;;0.10;0.10;;;;;;;;;;5093020;28;20094;-87
2021/12/07 15:34:03;;;;;;;0.10;0.10;;;;;;;;;;5092608;28;20044;-87
2021/12/07 15:36:30;;;;;;;0.10;0.10;;;;;;;;;;5075584;28;20042;-88
2021/12/07 15:39:10;;;;;;;0.10;0.10;;;;;;;;;;5079146;28;20230;-88
2021/12/07 15:41:36;;;;;;;0.10;0.10;;;;;;;;;;5068031;28;20040;-90
2021/12/07 15:44:02;;;;;;;0.10;0.10;;;;;;;;;;5058786;28;20032;-89
2021/12/07 15:46:29;;;;;;;0.10;0.10;;;;;;;;;;5059217;28;20084;-88
2021/12/07 15:48:56;;;;;;;0.32;0.20;;;;;;;;;;5094947;28;20047;-89
2021/12/07 15:51:22;;;;;;;0.00;0.00;;;;;;;;;;5095704;28;20039;-89
2021/12/07 15:53:48;;;;;;;0.10;0.10;;;;;;;;;;5078735;28;20547;-88
2021/12/07 15:56:17;;;;;;;0.10;0.10;;;;;;;;;;5095710;28;20043;-89
2021/12/07 15:58:44;;;;;;;0.03;0.03;;;;;;;;;;5077733;28;20054;-88
2021/12/07 16:01:10;;;;;;;0.20;0.20;;;;;;;;;;5078047;28;20043;-89
2021/12/07 16:03:41;;;;;;;0.10;0.10;;;;;;;;;;5112404;28;20086;-87
2021/12/07 16:06:15;;;;;;;0.10;0.10;;;;;;;;;;5078849;28;20073;-89
2021/12/07 16:08:43;;;;;;;0.10;0.10;;;;;;;;;;5082117;28;20376;-88
2021/12/07 16:11:10;;;;;;;0.30;0.30;;;;;;;;;;5074274;28;20036;-88
2021/12/07 16:13:36;;;;;;;0.10;0.10;;;;;;;;;;5065523;28;20051;-88
2021/12/07 16:16:03;;;;;;;0.10;0.10;;;;;;;;;;5078284;28;20032;-87
2021/12/07 16:18:30;;;;;;;0.10;0.10;;;;;;;;;;5077556;28;20105;-88
2021/12/07 16:20:58;;;;;;;0.10;0.10;;;;;;;;;;5074842;28;20132;-87
2021/12/07 16:23:24;;;;;;;0.10;0.10;;;;;;;;;;5058387;28;20044;-86